Time;durP1;ratioP1;P1;durP2;ratioP2;P2;SDS_P1;SDS_P2;PMS_P1;PMS_P2;Temp;Humidity;BMP_temperature;BMP_pressure;BME280_temperature;BME280_humidity;BME280_pressure;Samples;Min_cycle;Max_cycle;Signal;HPM_P1;HPM_P2
2023/04/22 00:00:13;;;;;;;22.90;8.07;;;;;;;10.35;100.00;100229.94;5000845;28;20096;-78
2023/04/22 00:02:39;;;;;;;18.45;8.40;;;;;;;10.13;100.00;100231.66;5005484;28;20029;-77
2023/04/22 00:05:06;;;;;;;17.98;7.03;;;;;;;9.44;100.00;100134.75;5023229;28;20030;-75
2023/04/22 00:07:31;;;;;;;20.77;7.65;;;;;;;10.19;100.00;100245.66;5007154;28;20073;-75
2023/04/22 00:09:57;;;;;;;19.13;7.90;;;;;;;10.41;100.00;100250.00;5006796;28;20528;-75
2023/04/22 00:12:24;;;;;;;15.75;7.53;;;;;;;10.32;100.00;100229.94;5005442;28;20092;-75
2023/04/22 00:14:50;;;;;;;20.00;8.98;;;;;;;9.70;100.00;100126.88;5007481;28;20099;-74
2023/04/22 00:17:16;;;;;;;19.60;7.80;;;;;;;10.17;100.00;100205.47;5003277;28;20037;-76
2023/04/22 00:19:41;;;;;;;22.20;8.80;;;;;;;9.43;100.00;100106.81;4998432;28;20176;-75
2023/04/22 00:22:07;;;;;;;19.02;8.27;;;;;;;9.46;100.00;100101.59;5006834;28;20052;-76
2023/04/22 00:24:32;;;;;;;25.25;8.73;;;;;;;9.87;100.00;100186.25;5004288;28;20536;-76
2023/04/22 00:26:58;;;;;;;19.00;8.77;;;;;;;10.10;100.00;100208.06;5005751;28;20042;-75
2023/04/22 00:29:26;;;;;;;22.13;9.88;;;;;;;9.55;100.00;100116.41;5007576;28;20026;-75
2023/04/22 00:31:51;;;;;;;20.60;7.60;;;;;;;9.70;100.00;100118.16;5000931;28;20112;-75
2023/04/22 00:34:17;;;;;;;21.70;7.75;;;;;;;10.28;100.00;100207.22;5002420;28;20037;-75
2023/04/22 00:36:43;;;;;;;16.92;8.77;;;;;;;10.15;100.00;100201.06;5006930;28;20089;-76
2023/04/22 00:39:08;;;;;;;23.23;9.50;;;;;;;9.97;100.00;100193.22;5006556;28;20077;-76
2023/04/22 00:41:34;;;;;;;15.98;8.13;;;;;;;8.57;100.00;99980.28;5010236;28;20099;-76
2023/04/22 00:44:00;;;;;;;18.58;8.57;;;;;;;9.67;100.00;100160.97;5011555;28;20068;-75
2023/04/22 00:46:25;;;;;;;17.60;8.07;;;;;;;9.02;100.00;100075.41;5006320;28;20498;-77
2023/04/22 00:48:51;;;;;;;13.10;8.10;;;;;;;8.73;100.00;100055.28;5023710;28;20111;-76
2023/04/22 00:51:17;;;;;;;19.30;7.25;;;;;;;9.05;100.00;100105.06;5017404;28;20499;-74
2023/04/22 00:53:42;;;;;;;24.02;8.70;;;;;;;9.15;100.00;100105.94;5007913;28;20091;-75
2023/04/22 00:56:08;;;;;;;19.58;9.23;;;;;;;9.92;100.00;100227.31;5011166;28;20026;-76
2023/04/22 00:58:34;;;;;;;26.50;9.50;;;;;;;9.48;100.00;100153.94;5009928;28;20042;-76
2023/04/22 01:00:59;;;;;;;12.52;7.97;;;;;;;9.25;100.00;100130.41;5001548;28;20037;-75
2023/04/22 01:03:27;;;;;;;21.95;8.27;;;;;;;9.84;100.00;100239.56;5010210;28;20055;-75
2023/04/22 01:05:52;;;;;;;17.52;8.30;;;;;;;9.40;100.00;100156.56;5040806;28;20045;-75
2023/04/22 01:08:18;;;;;;;14.32;7.88;;;;;;;9.77;100.00;100198.50;5010367;28;20033;-76
2023/04/22 01:10:43;;;;;;;26.35;10.25;;;;;;;9.56;100.00;100220.31;5010394;28;20077;-76
2023/04/22 01:13:09;;;;;;;17.42;9.00;;;;;;;9.21;100.00;100197.56;5010128;28;20038;-75
2023/04/22 01:15:35;;;;;;;14.45;8.52;;;;;;;8.81;100.00;100173.06;5001366;28;20050;-74
2023/04/22 01:18:01;;;;;;;14.13;8.55;;;;;;;8.85;100.00;100190.50;5010008;28;20038;-74
2023/04/22 01:20:28;;;;;;;24.67;9.48;;;;;;;8.45;100.00;100093.56;5010127;28;20371;-74
2023/04/22 01:22:56;;;;;;;25.13;9.75;;;;;;;8.98;100.00;100181.81;5017538;28;20065;-74
2023/04/22 01:25:22;;;;;;;21.60;8.73;;;;;;;9.63;100.00;100215.97;5007589;28;20397;-75
2023/04/22 01:27:48;;;;;;;19.98;10.55;;;;;;;9.42;100.00;100165.31;5003959;28;20141;-74
2023/04/22 01:30:14;;;;;;;16.92;8.68;;;;;;;9.57;100.00;100195.88;5008398;28;20553;-76
2023/04/22 01:32:40;;;;;;;15.60;10.50;;;;;;;9.15;100.00;100186.22;5008565;28;20069;-76
2023/04/22 01:35:07;;;;;;;28.38;10.88;;;;;;;9.15;100.00;100166.13;5009063;28;20030;-74
2023/04/22 01:37:34;;;;;;;28.23;11.43;;;;;;;8.54;100.00;100059.63;5009052;28;20054;-77
2023/04/22 01:39:59;;;;;;;17.05;10.85;;;;;;;8.70;100.00;100063.13;5009629;28;20053;-75
2023/04/22 01:42:25;;;;;;;22.40;10.18;;;;;;;9.66;100.00;100195.00;5000962;28;20117;-75
2023/04/22 01:44:51;;;;;;;26.30;10.13;;;;;;;9.49;100.00;100172.28;5009304;28;20046;-76
2023/04/22 01:47:16;;;;;;;21.15;9.25;;;;;;;9.40;100.00;100155.72;5010224;28;20432;-76
2023/04/22 01:49:42;;;;;;;17.15;10.05;;;;;;;8.71;100.00;100038.75;5009811;28;20057;-75
2023/04/22 01:52:07;;;;;;;20.70;8.98;;;;;;;8.74;100.00;100030.03;5004181;28;20041;-75
2023/04/22 01:54:34;;;;;;;21.80;9.70;;;;;;;8.62;100.00;100017.81;5010945;28;20597;-75
2023/04/22 01:56:59;;;;;;;16.58;9.55;;;;;;;9.40;100.00;100150.47;4998597;28;20068;-76
2023/04/22 01:59:25;;;;;;;23.52;9.40;;;;;;;9.19;100.00;100096.34;5007558;28;20478;-77
2023/04/22 02:01:50;;;;;;;18.00;9.93;;;;;;;8.84;100.00;100052.69;5009197;28;20045;-74
2023/04/22 02:04:16;;;;;;;15.35;9.05;;;;;;;8.96;100.00;100099.81;5005306;28;20053;-74
2023/04/22 02:06:41;;;;;;;23.52;10.10;;;;;;;7.76;100.00;99970.47;5008594;28;20053;-75
2023/04/22 02:09:07;;;;;;;27.23;10.95;;;;;;;7.92;100.00;99972.28;5009255;28;20050;-74
2023/04/22 02:11:32;;;;;;;24.30;11.50;;;;;;;7.81;100.00;99951.34;4999714;28;20561;-74
2023/04/22 02:13:58;;;;;;;23.73;10.68;;;;;;;8.23;100.00;100022.03;5009654;28;20037;-74
2023/04/22 02:16:23;;;;;;;17.23;10.57;;;;;;;8.69;100.00;100099.78;5009248;28;20466;-74
2023/04/22 02:18:49;;;;;;;20.48;9.68;;;;;;;8.62;100.00;100098.88;5008961;28;20038;-73
2023/04/22 02:21:14;;;;;;;22.92;11.95;;;;;;;7.86;100.00;99971.38;5008220;28;20045;-74
2023/04/22 02:23:40;;;;;;;22.10;11.65;;;;;;;8.62;100.00;100093.66;5003641;28;20088;-73
2023/04/22 02:26:06;;;;;;;28.33;11.82;;;;;;;7.83;100.00;99954.81;5002741;28;20065;-73
2023/04/22 02:28:32;;;;;;;20.25;11.68;;;;;;;8.42;100.00;100060.44;5007086;28;20070;-73
2023/04/22 02:30:58;;;;;;;22.75;12.65;;;;;;;8.35;100.00;100040.34;5008769;28;20052;-73
2023/04/22 02:33:24;;;;;;;28.98;14.75;;;;;;;7.61;100.00;99919.94;5005820;28;20494;-74
2023/04/22 02:35:49;;;;;;;26.42;13.40;;;;;;;7.64;100.00;99944.31;5008435;28;20811;-75
2023/04/22 02:38:15;;;;;;;20.15;13.00;;;;;;;7.63;100.00;99963.44;5007164;28;20080;-74
2023/04/22 02:40:40;;;;;;;27.55;13.35;;;;;;;7.48;100.00;99954.69;5003311;28;20042;-75
2023/04/22 02:43:06;;;;;;;26.65;12.48;;;;;;;7.46;100.00;99945.97;5008547;28;20528;-75
2023/04/22 02:45:32;;;;;;;22.70;12.80;;;;;;;7.21;100.00;99910.16;5008743;28;20046;-75
2023/04/22 02:47:57;;;;;;;27.17;11.95;;;;;;;7.26;100.00;99926.72;5008404;28;20038;-75
2023/04/22 02:50:23;;;;;;;20.88;13.13;;;;;;;7.45;100.00;99959.91;5008480;28;20736;-75
2023/04/22 02:52:48;;;;;;;28.42;12.75;;;;;;;8.10;100.00;100076.00;5006360;28;20107;-75
2023/04/22 02:55:13;;;;;;;23.17;13.13;;;;;;;7.21;100.00;99931.03;5009291;28;20041;-74
2023/04/22 02:57:39;;;;;;;22.85;12.95;;;;;;;7.98;100.00;100071.59;5008697;28;20050;-75
2023/04/22 03:00:07;;;;;;;30.38;12.77;;;;;;;7.23;100.00;99944.97;5008181;28;20046;-74
2023/04/22 03:02:32;;;;;;;13.65;11.07;;;;;;;7.68;100.00;100008.72;5000035;28;20065;-75
2023/04/22 03:04:59;;;;;;;36.45;12.63;;;;;;;7.43;100.00;99909.41;5008675;28;20049;-74
2023/04/22 03:07:25;;;;;;;18.60;12.10;;;;;;;8.35;100.00;100082.19;5002069;28;20827;-74
2023/04/22 03:09:52;;;;;;;21.83;11.90;;;;;;;7.88;100.00;100072.41;5008156;28;20033;-75
2023/04/22 03:12:17;;;;;;;31.70;13.02;;;;;;;7.92;100.00;100086.34;5007909;28;20068;-76
2023/04/22 03:14:43;;;;;;;29.70;13.73;;;;;;;7.10;100.00;99963.16;5006773;28;20030;-77
2023/04/22 03:17:08;;;;;;;23.48;11.98;;;;;;;7.86;100.00;100092.41;5008447;28;20041;-74
2023/04/22 03:19:34;;;;;;;25.27;12.00;;;;;;;7.84;100.00;100078.47;5007360;28;20042;-75
2023/04/22 03:21:59;;;;;;;19.73;11.57;;;;;;;7.68;100.00;100046.19;4998387;28;20038;-75
2023/04/22 03:24:25;;;;;;;26.38;13.07;;;;;;;7.96;100.00;100090.72;5000227;28;20640;-74
2023/04/22 03:26:50;;;;;;;24.15;12.60;;;;;;;7.86;100.00;100084.56;5007497;28;20057;-77
2023/04/22 03:29:16;;;;;;;28.67;13.55;;;;;;;7.14;100.00;99993.63;5006300;28;20033;-75
2023/04/22 03:31:41;;;;;;;25.15;12.10;;;;;;;7.88;100.00;100108.09;5007517;28;20054;-76
2023/04/22 03:34:07;;;;;;;20.42;12.93;;;;;;;7.49;100.00;100080.84;5003406;28;20038;-74
2023/04/22 03:36:32;;;;;;;26.35;14.07;;;;;;;7.87;100.00;100161.22;5005100;28;20105;-74
2023/04/22 03:38:58;;;;;;;22.38;14.80;;;;;;;7.10;100.00;100014.47;5007955;28;20064;-75
2023/04/22 03:41:25;;;;;;;22.80;12.82;;;;;;;7.61;100.00;100130.56;5008197;28;20508;-74
2023/04/22 03:43:51;;;;;;;31.65;12.75;;;;;;;7.74;100.00;100139.34;5007723;28;20052;-75
2023/04/22 03:46:16;;;;;;;27.55;15.10;;;;;;;7.04;100.00;100004.84;5007459;28;20037;-76
2023/04/22 03:48:42;;;;;;;12.63;8.13;;;;;;;7.92;100.00;100160.38;4994466;28;20057;-76
2023/04/22 03:51:07;;;;;;;11.93;8.35;;;;;;;7.06;100.00;99999.66;5007538;28;20562;-76
2023/04/22 03:53:33;;;;;;;20.00;9.13;;;;;;;7.91;100.00;100111.59;4997655;28;20033;-75
2023/04/22 03:55:58;;;;;;;43.05;15.20;;;;;;;8.15;100.00;100155.28;5018844;28;20037;-76
2023/04/22 03:58:24;;;;;;;26.23;14.80;;;;;;;7.36;100.00;99999.84;5007314;28;20034;-75
2023/04/22 04:00:49;;;;;;;21.27;13.52;;;;;;;8.24;100.00;100137.06;5007141;28;20057;-75
2023/04/22 04:03:17;;;;;;;22.70;14.80;;;;;;;8.37;100.00;100165.84;4996947;28;20395;-76
2023/04/22 04:05:43;;;;;;;34.50;15.48;;;;;;;7.46;100.00;99990.34;5007306;28;20431;-75
2023/04/22 04:08:08;;;;;;;29.30;15.73;;;;;;;8.33;100.00;100143.16;5007599;28;20041;-76
2023/04/22 04:10:35;;;;;;;34.08;16.25;;;;;;;8.47;100.00;100161.56;5007262;28;20471;-77
2023/04/22 04:13:01;;;;;;;28.88;15.63;;;;;;;8.07;100.00;100090.78;5007026;28;20050;-76
2023/04/22 04:15:26;;;;;;;32.83;16.08;;;;;;;7.66;100.00;100027.03;5013280;28;20034;-75
2023/04/22 04:17:52;;;;;;;36.00;15.02;;;;;;;7.25;100.00;99954.53;5007277;28;20049;-76
2023/04/22 04:20:17;;;;;;;24.85;14.38;;;;;;;8.59;100.00;100162.50;5007223;28;20026;-76
2023/04/22 04:22:43;;;;;;;27.23;17.58;;;;;;;8.61;100.00;100157.28;5006739;28;20050;-76
2023/04/22 04:25:09;;;;;;;33.78;18.00;;;;;;;8.13;100.00;100069.91;5004915;28;20041;-77
2023/04/22 04:27:35;;;;;;;38.97;17.58;;;;;;;7.90;100.00;100140.34;5006622;28;20050;-77
2023/04/22 04:30:03;;;;;;;30.65;17.58;;;;;;;7.48;100.00;100066.06;5003028;28;20518;-76
2023/04/22 04:32:28;;;;;;;26.85;16.75;;;;;;;7.61;100.00;100089.66;4999587;28;20538;-76
2023/04/22 04:34:54;;;;;;;30.48;18.67;;;;;;;8.32;100.00;100210.28;5007330;28;20025;-76
2023/04/22 04:37:21;;;;;;;26.40;17.55;;;;;;;7.73;100.00;100107.13;5007075;28;20570;-75
2023/04/22 04:39:47;;;;;;;21.63;16.58;;;;;;;8.44;100.00;100240.88;5006743;28;20049;-76
2023/04/22 04:42:13;;;;;;;26.88;16.98;;;;;;;7.77;100.00;100123.69;5006700;28;20065;-75
2023/04/22 04:44:39;;;;;;;38.15;18.30;;;;;;;8.52;100.00;100253.97;5002637;28;20057;-76
2023/04/22 04:47:05;;;;;;;30.40;15.45;;;;;;;8.56;100.00;100246.16;5001229;28;20026;-75
2023/04/22 04:49:31;;;;;;;28.48;17.38;;;;;;;8.23;100.00;100123.97;5006538;28;20038;-76
2023/04/22 04:51:57;;;;;;;21.98;15.60;;;;;;;8.51;100.00;100161.59;5004639;28;20041;-76
2023/04/22 04:54:22;;;;;;;26.77;16.52;;;;;;;8.92;100.00;100210.59;5009608;28;20607;-77
2023/04/22 04:56:47;;;;;;;26.58;14.20;;;;;;;9.12;100.00;100283.06;5006346;28;20410;-76
2023/04/22 04:59:13;;;;;;;39.80;16.08;;;;;;;9.28;100.00;100292.72;5000419;28;20034;-77
2023/04/22 05:01:39;;;;;;;30.33;15.35;;;;;;;9.52;100.00;100329.44;5002701;28;20042;-75
2023/04/22 05:04:04;;;;;;;25.27;14.50;;;;;;;9.77;100.00;100329.53;5006507;28;20096;-75
2023/04/22 05:06:32;;;;;;;32.90;16.90;;;;;;;8.98;100.00;100234.16;5006266;28;21663;-76
2023/04/22 05:08:58;;;;;;;28.60;13.60;;;;;;;9.60;100.00;100328.59;5002419;28;20068;-75
2023/04/22 05:11:24;;;;;;;29.85;15.43;;;;;;;9.42;100.00;100266.56;5006389;28;20470;-75
2023/04/22 05:13:49;;;;;;;37.33;16.98;;;;;;;9.79;100.00;100325.16;4995751;28;20045;-75
2023/04/22 05:16:15;;;;;;;23.15;16.02;;;;;;;10.03;100.00;100354.91;5005912;28;20034;-76
2023/04/22 05:18:40;;;;;;;34.30;14.68;;;;;;;10.34;100.00;100389.91;5005005;28;20046;-76
2023/04/22 05:21:06;;;;;;;20.85;14.57;;;;;;;10.18;100.00;100344.41;5006422;28;20046;-75
2023/04/22 05:23:31;;;;;;;27.75;14.88;;;;;;;10.87;100.00;100381.13;5004723;28;20504;-75
2023/04/22 05:25:57;;;;;;;31.33;13.23;;;;;;;11.29;100.00;100291.72;5001546;28;20744;-76
2023/04/22 05:28:23;;;;;;;22.55;12.88;;;;;;;12.93;100.00;100460.72;5009300;28;20489;-76
2023/04/22 05:30:48;;;;;;;21.80;11.35;;;;;;;13.54;100.00;100446.94;5009273;28;20052;-75
2023/04/22 05:33:14;;;;;;;22.40;14.25;;;;;;;14.42;100.00;100459.84;5009853;28;20452;-75
2023/04/22 05:35:39;;;;;;;39.80;13.20;;;;;;;13.07;100.00;100349.06;5009971;28;20037;-75
2023/04/22 05:38:05;;;;;;;29.83;11.73;;;;;;;12.99;100.00;100361.41;5010181;28;20080;-74
2023/04/22 05:40:30;;;;;;;24.95;12.85;;;;;;;15.24;100.00;100467.34;5006861;28;20093;-74
2023/04/22 05:42:56;;;;;;;28.02;12.23;;;;;;;15.73;100.00;100514.03;5007655;28;20802;-75
2023/04/22 05:45:22;;;;;;;31.83;12.15;;;;;;;15.43;100.00;100417.63;5009307;28;20541;-77
2023/04/22 05:47:47;;;;;;;22.90;11.63;;;;;;;15.46;100.00;100393.75;5009391;28;20888;-74
2023/04/22 05:50:13;;;;;;;32.80;11.88;;;;;;;16.27;100.00;100496.13;5009774;28;20029;-74
2023/04/22 05:52:39;;;;;;;16.02;9.98;;;;;;;16.63;100.00;100483.84;5007666;28;20478;-74
2023/04/22 05:55:05;;;;;;;28.02;10.27;;;;;;;15.07;97.32;100414.75;4998151;28;20153;-74
2023/04/22 05:57:30;;;;;;;22.77;10.82;;;;;;;15.06;100.00;100488.81;5009518;28;20061;-72
2023/04/22 05:59:59;;;;;;;26.23;10.88;;;;;;;16.47;93.00;100395.91;5008864;28;20414;-75
2023/04/22 06:02:24;;;;;;;27.77;10.52;;;;;;;16.12;91.13;100495.56;5009965;28;20534;-73
2023/04/22 06:04:50;;;;;;;21.15;10.60;;;;;;;16.40;100.00;100495.84;5009459;28;20141;-74
2023/04/22 06:07:16;;;;;;;19.75;10.32;;;;;;;16.84;90.06;100456.00;5009496;28;20485;-74
2023/04/22 06:09:41;;;;;;;34.85;11.95;;;;;;;17.14;90.30;100416.31;5000219;28;20076;-74
2023/04/22 06:12:07;;;;;;;19.15;10.18;;;;;;;17.63;78.26;100526.38;5008925;28;20050;-74
2023/04/22 06:14:32;;;;;;;15.93;10.20;;;;;;;16.41;87.33;100502.91;5008978;28;20034;-75
2023/04/22 06:16:57;;;;;;;26.02;10.15;;;;;;;15.47;85.28;100403.41;5009684;28;20030;-75
2023/04/22 06:19:23;;;;;;;21.08;9.02;;;;;;;17.24;79.66;100527.41;5009085;28;20050;-75
2023/04/22 06:21:48;;;;;;;21.17;9.82;;;;;;;16.71;75.41;100458.03;5008826;28;20494;-74
2023/04/22 06:24:14;;;;;;;26.38;11.52;;;;;;;18.12;74.05;100540.97;4996301;28;20046;-74
2023/04/22 06:26:39;;;;;;;12.57;8.63;;;;;;;16.71;75.89;100516.31;5008686;28;20126;-75
2023/04/22 06:29:05;;;;;;;13.90;10.13;;;;;;;16.11;80.57;100424.13;5001666;28;20033;-75
2023/04/22 06:31:31;;;;;;;27.88;9.93;;;;;;;16.52;85.67;100550.31;5008291;28;20405;-74
2023/04/22 06:33:57;;;;;;;26.52;9.85;;;;;;;16.60;75.22;100484.78;5008050;28;20136;-75
2023/04/22 06:36:23;;;;;;;14.77;8.70;;;;;;;15.74;79.58;100460.22;5008579;28;20125;-76
2023/04/22 06:38:48;;;;;;;13.02;9.48;;;;;;;16.11;77.77;100432.97;5000533;28;20062;-75
2023/04/22 06:41:14;;;;;;;14.70;8.80;;;;;;;15.74;75.00;100558.09;5008579;28;20036;-75
2023/04/22 06:43:39;;;;;;;12.70;7.75;;;;;;;15.67;78.45;100558.22;5008443;28;20437;-75
2023/04/22 06:46:05;;;;;;;17.60;7.78;;;;;;;15.34;80.99;100566.72;5008036;28;20474;-74
2023/04/22 06:48:30;;;;;;;15.75;8.15;;;;;;;16.20;81.03;100522.78;5008215;28;20121;-75
2023/04/22 06:50:56;;;;;;;11.90;7.88;;;;;;;16.44;72.88;100552.28;5006261;28;20406;-76
2023/04/22 06:53:22;;;;;;;18.02;8.50;;;;;;;16.70;71.06;100513.72;5003817;28;20033;-75
2023/04/22 06:55:47;;;;;;;12.60;8.73;;;;;;;16.91;72.79;100526.50;5002425;28;20052;-74
2023/04/22 06:58:13;;;;;;;22.80;9.57;;;;;;;16.24;69.66;100452.06;5006605;28;20053;-75
2023/04/22 07:00:38;;;;;;;15.50;6.53;;;;;;;16.24;66.25;100540.31;5008266;28;20046;-74
2023/04/22 07:03:04;;;;;;;14.95;8.27;;;;;;;15.73;67.31;100482.28;5007960;28;20049;-75
2023/04/22 07:05:30;;;;;;;15.07;7.03;;;;;;;16.43;65.80;100569.91;5002449;28;20045;-74
2023/04/22 07:07:56;;;;;;;24.40;7.15;;;;;;;16.34;64.25;100548.06;5017909;28;20026;-76
2023/04/22 07:10:21;;;;;;;8.57;6.53;;;;;;;15.91;66.91;100472.22;5008239;28;20033;-76
2023/04/22 07:12:47;;;;;;;16.77;7.82;;;;;;;15.37;69.58;100466.19;5013437;28;20490;-75
2023/04/22 07:15:12;;;;;;;13.20;6.30;;;;;;;15.86;63.49;100566.72;5007938;28;20107;-74
2023/04/22 07:17:38;;;;;;;10.80;5.85;;;;;;;15.53;60.26;100468.53;5008080;28;20025;-75
2023/04/22 07:20:04;;;;;;;15.18;6.22;;;;;;;16.04;57.65;100571.66;4999326;28;20030;-75
2023/04/22 07:22:30;;;;;;;13.52;5.30;;;;;;;14.78;57.92;100499.81;5007772;28;20065;-74
2023/04/22 07:24:55;;;;;;;17.48;5.35;;;;;;;15.12;56.99;100575.91;5000900;28;20049;-75
2023/04/22 07:27:21;;;;;;;10.27;4.75;;;;;;;15.14;58.29;100574.97;5007666;28;20069;-75
2023/04/22 07:29:46;;;;;;;16.67;5.10;;;;;;;15.77;58.52;100600.38;5005861;28;20133;-74
2023/04/22 07:32:12;;;;;;;9.88;3.47;;;;;;;15.82;56.82;100595.00;5004528;28;20033;-75
2023/04/22 07:34:37;;;;;;;16.08;5.45;;;;;;;15.13;56.28;100567.09;5000855;28;20054;-75
2023/04/22 07:37:03;;;;;;;25.40;5.28;;;;;;;15.70;58.85;100567.00;5001273;28;20050;-74
2023/04/22 07:39:29;;;;;;;12.00;4.03;;;;;;;15.47;55.25;100577.06;5004757;28;20045;-74
2023/04/22 07:41:56;;;;;;;16.52;5.32;;;;;;;15.33;57.74;100562.31;5002884;28;20049;-76
2023/04/22 07:44:22;;;;;;;18.80;5.05;;;;;;;15.46;56.45;100604.44;4992849;28;20054;-73
2023/04/22 07:46:47;;;;;;;22.23;5.57;;;;;;;15.61;55.01;100593.56;5001295;28;20080;-73
2023/04/22 07:49:13;;;;;;;15.90;5.00;;;;;;;15.80;53.96;100604.72;4992987;28;20406;-74
2023/04/22 07:51:39;;;;;;;17.58;4.68;;;;;;;15.21;52.58;100517.59;5000091;28;20037;-74
2023/04/22 07:54:05;;;;;;;8.98;4.38;;;;;;;15.29;51.37;100504.22;5002875;28;20056;-74
2023/04/22 07:56:31;;;;;;;9.98;4.80;;;;;;;15.32;51.58;100589.66;5001536;28;20072;-75
2023/04/22 07:58:56;;;;;;;15.45;4.50;;;;;;;15.61;53.78;100570.63;5005288;28;20485;-73
2023/04/22 08:01:22;;;;;;;16.10;3.88;;;;;;;15.98;53.49;100616.75;5003378;28;20038;-75
2023/04/22 08:03:48;;;;;;;16.60;5.25;;;;;;;15.90;53.44;100603.66;5000404;28;20050;-73
2023/04/22 08:06:14;;;;;;;21.45;5.72;;;;;;;16.10;51.85;100600.63;5001840;28;20050;-73
2023/04/22 08:08:39;;;;;;;11.20;4.60;;;;;;;15.76;52.07;100564.25;4997609;28;20068;-74
2023/04/22 08:11:06;;;;;;;9.30;3.50;;;;;;;15.00;51.04;100510.91;4993242;28;20033;-76
2023/04/22 08:13:32;;;;;;;13.02;4.28;;;;;;;15.83;52.71;100613.50;5001848;28;20105;-73
2023/04/22 08:16:01;;;;;;;23.42;4.70;;;;;;;15.00;54.01;100510.91;5001218;28;20049;-71
2023/04/22 08:18:26;;;;;;;11.55;4.35;;;;;;;15.74;56.22;100612.78;4984810;28;20134;-73
2023/04/22 08:20:52;;;;;;;14.98;4.90;;;;;;;15.85;55.68;100604.63;4995127;28;20042;-74
2023/04/22 08:23:18;;;;;;;13.68;3.80;;;;;;;15.99;55.19;100592.00;4995210;28;20030;-72
2023/04/22 08:25:43;;;;;;;12.98;4.75;;;;;;;15.18;55.02;100491.22;4997438;28;20534;-72
2023/04/22 08:28:09;;;;;;;9.77;4.25;;;;;;;15.20;57.05;100555.50;4999140;28;20482;-72
2023/04/22 08:30:35;;;;;;;19.08;5.45;;;;;;;14.88;56.07;100501.41;5003924;28;20131;-72
2023/04/22 08:33:00;;;;;;;17.52;4.60;;;;;;;15.71;57.33;100612.81;4996543;28;20046;-72
2023/04/22 08:35:26;;;;;;;20.23;5.93;;;;;;;15.36;59.07;100567.56;4995061;28;20083;-73
2023/04/22 08:37:52;;;;;;;16.83;5.07;;;;;;;15.02;59.15;100516.16;4996162;28;20688;-73
2023/04/22 08:40:18;;;;;;;16.90;5.60;;;;;;;15.34;58.61;100587.00;5000115;28;20054;-72
2023/04/22 08:42:44;;;;;;;12.45;4.95;;;;;;;15.06;58.46;100525.78;4999977;28;20569;-73
2023/04/22 08:45:09;;;;;;;12.35;4.28;;;;;;;15.19;58.51;100499.13;4993945;28;20483;-71
2023/04/22 08:47:37;;;;;;;13.63;5.05;;;;;;;15.56;58.88;100539.88;4998353;28;20141;-72
2023/04/22 08:50:05;;;;;;;14.88;4.05;;;;;;;16.03;58.62;100594.56;4998076;28;20045;-72
2023/04/22 08:52:32;;;;;;;17.83;5.13;;;;;;;15.53;57.01;100522.31;4999791;28;20481;-72
2023/04/22 08:54:58;;;;;;;15.23;4.75;;;;;;;16.20;55.88;100604.84;5003720;28;20092;-72
2023/04/22 08:57:25;;;;;;;15.88;6.07;;;;;;;16.06;55.44;100540.72;5005840;28;20090;-72
2023/04/22 08:59:54;;;;;;;6.13;4.03;;;;;;;16.50;55.84;100591.84;5001470;28;20534;-74
2023/04/22 09:02:20;;;;;;;9.13;5.05;;;;;;;16.01;54.98;100487.88;5006787;28;20049;-72
2023/04/22 09:04:48;;;;;;;8.50;4.05;;;;;;;15.16;56.30;100508.88;5011170;28;20355;-72
2023/04/22 09:07:27;;;;;;;14.63;5.68;;;;;;;15.97;56.38;100599.13;4998053;28;20050;-72
2023/04/22 09:09:57;;;;;;;12.75;4.72;;;;;;;15.93;54.85;100574.50;5003329;28;20482;-74
2023/04/22 09:12:24;;;;;;;10.95;4.78;;;;;;;16.36;54.33;100580.69;5005696;28;20056;-73
2023/04/22 09:14:51;;;;;;;15.15;5.93;;;;;;;16.55;55.83;100544.97;5001096;28;20046;-71
2023/04/22 09:17:17;;;;;;;13.48;5.30;;;;;;;16.64;55.65;100595.06;5002394;28;20037;-72
2023/04/22 09:19:57;;;;;;;9.43;4.72;;;;;;;16.98;57.00;100564.31;5001188;28;20137;-72
2023/04/22 09:22:23;;;;;;;10.38;4.88;;;;;;;16.61;55.24;100591.63;5038017;28;20046;-72
2023/04/22 09:24:52;;;;;;;13.25;4.60;;;;;;;16.83;52.12;100574.38;5008103;28;20456;-72
2023/04/22 09:27:22;;;;;;;12.93;4.95;;;;;;;16.83;54.48;100592.03;5002299;28;20049;-72
2023/04/22 09:29:49;;;;;;;17.13;6.05;;;;;;;16.92;51.93;100475.19;5004715;28;20645;-72
2023/04/22 09:32:16;;;;;;;13.50;5.50;;;;;;;18.02;52.10;100571.38;5009212;28;20084;-71
2023/04/22 09:34:53;;;;;;;9.68;4.88;;;;;;;18.59;51.45;100589.19;5004047;28;20391;-74
2023/04/22 09:37:22;;;;;;;11.63;5.40;;;;;;;17.70;50.49;100480.22;5008569;28;20050;-73
2023/04/22 09:39:48;;;;;;;21.45;6.20;;;;;;;17.18;50.26;100466.56;5004343;28;20034;-73
2023/04/22 09:42:15;;;;;;;11.63;4.95;;;;;;;17.26;50.05;100572.47;5006539;28;20104;-73
2023/04/22 09:44:40;;;;;;;22.13;5.90;;;;;;;17.61;50.26;100595.44;5006092;28;20045;-74
2023/04/22 09:47:07;;;;;;;13.15;4.40;;;;;;;18.08;50.26;100595.97;5006731;28;20077;-72
2023/04/22 09:49:39;;;;;;;23.35;4.85;;;;;;;18.61;48.15;100586.47;5007257;28;20386;-75
2023/04/22 09:52:06;;;;;;;8.02;4.60;;;;;;;17.95;48.74;100591.03;5005508;28;20049;-72
2023/04/22 10:07:30;;;;;;;24.52;5.28;;;;;;;16.86;50.46;100459.47;5084209;27;20601;-72
2023/04/22 10:09:56;;;;;;;9.07;4.95;;;;;;;18.41;49.01;100552.53;5043231;28;20049;-72
2023/04/22 10:12:23;;;;;;;13.98;4.13;;;;;;;19.26;47.80;100569.38;5040201;28;20029;-72
2023/04/22 10:14:48;;;;;;;11.15;5.45;;;;;;;18.92;49.48;100558.06;5050208;28;20053;-72
2023/04/22 10:17:16;;;;;;;14.77;4.10;;;;;;;18.66;49.29;100511.00;5039490;28;20199;-71
2023/04/22 10:19:41;;;;;;;52.83;8.50;;;;;;;19.72;49.82;100554.53;5044027;28;20057;-71
2023/04/22 10:22:09;;;;;;;17.15;5.05;;;;;;;19.91;47.40;100539.59;5039335;28;20091;-72
2023/04/22 10:24:36;;;;;;;96.57;12.35;;;;;;;18.88;45.18;100528.94;5036354;28;20049;-72
2023/04/22 10:27:07;;;;;;;51.35;11.52;;;;;;;18.55;46.76;100523.75;5054403;28;20178;-73
2023/04/22 10:29:41;;;;;;;10.02;4.40;;;;;;;18.33;46.80;100556.31;5034691;28;20042;-72
2023/04/22 10:32:16;;;;;;;6.97;4.30;;;;;;;19.27;46.95;100557.78;5039894;28;20135;-72
2023/04/22 10:34:42;;;;;;;12.45;4.07;;;;;;;18.85;45.51;100434.22;5040390;28;20132;-73
2023/04/22 10:37:12;;;;;;;9.98;4.22;;;;;;;19.02;47.77;100541.81;5039695;28;20041;-72
2023/04/22 10:39:40;;;;;;;9.55;5.00;;;;;;;20.58;47.41;100532.66;5035995;28;20033;-70
2023/04/22 10:42:10;;;;;;;13.25;5.13;;;;;;;19.04;46.88;100527.53;5037398;28;20045;-73
2023/04/22 10:44:49;;;;;;;10.07;4.10;;;;;;;19.26;45.91;100381.34;5037049;28;20041;-71
2023/04/22 10:47:31;;;;;;;17.58;4.55;;;;;;;19.86;43.79;100543.38;5036747;28;20045;-74
2023/04/22 10:50:25;;;;;;;14.15;4.45;;;;;;;20.64;44.78;100532.44;5038503;28;20061;-72
2023/04/22 10:52:54;;;;;;;11.43;4.55;;;;;;;19.26;44.42;100548.94;5048274;28;20507;-73
2023/04/22 10:55:20;;;;;;;17.90;4.65;;;;;;;20.22;46.76;100464.72;5043787;28;20045;-72
2023/04/22 10:57:47;;;;;;;7.25;4.00;;;;;;;20.84;42.83;100422.28;5042995;28;20453;-72
2023/04/22 11:00:31;;;;;;;14.75;5.68;;;;;;;19.22;43.15;100523.38;5041278;28;20393;-71
2023/04/22 11:02:56;;;;;;;7.88;4.70;;;;;;;19.78;44.97;100429.13;5057254;28;20072;-72
2023/04/22 11:05:26;;;;;;;7.50;3.25;;;;;;;20.81;43.50;100537.97;5062276;28;20052;-72
2023/04/22 11:08:00;;;;;;;14.30;4.40;;;;;;;19.95;45.99;100517.28;5052460;28;20049;-71
2023/04/22 11:10:50;;;;;;;10.82;4.65;;;;;;;21.07;47.80;100536.91;5046961;28;20052;-72
2023/04/22 11:13:20;;;;;;;7.07;4.38;;;;;;;20.46;44.45;100438.00;5040512;28;20587;-72
2023/04/22 11:15:48;;;;;;;23.83;4.82;;;;;;;20.39;43.95;100543.13;5026366;28;20044;-72
2023/04/22 11:18:23;;;;;;;12.88;4.25;;;;;;;19.92;48.35;100351.38;5029219;28;20034;-72
2023/04/22 11:20:51;;;;;;;8.32;3.72;;;;;;;20.44;44.71;100486.06;5028683;28;20049;-71
2023/04/22 11:23:23;;;;;;;11.88;4.38;;;;;;;20.92;46.43;100537.50;5028831;28;20508;-72